Aransas — WDC2630 — position and weather

sailwx.info

Track history (hours):
 
Tides and Currents Weather Stations Pressure Air Temp Water Temp Dewpoint Dewpoint Depression Visibility Wind Speed Wind Dir Waves Ship Positions

Aransas

Owner: Kirby Inland Marine LP, Houston, TX. More information available from US FCC via Universal Licensing System and Coast Guard Vessel Documentation Center.

Last reported at 2018-Feb-25 09:56 UTC. Time now 2018-Feb-25 10:06 UTC.
Position N 29°42' W 095°00'.

Length 77 m; draft 2.6 m.

Type: . MMSI: 366995780.

Date/timePositionNaut miles runAvg speedWind from/ knotsBaromVisibWave heightAir tempDewpointWater temp
2018-Feb-25 09:56N 29°42' W 095°00'1 0.0
2018-Feb-23 20:50N 29°42' W 095°01'5 8.8
2018-Feb-23 20:18N 29°39' W 094°58'2 6.0
2018-Feb-23 20:00N 29°37' W 094°58'3 5.2
2018-Feb-23 19:30N 29°37' W 095°01'0 0.0
2018-Feb-23 19:00N 29°37' W 095°01'0 0.0
2018-Feb-23 18:30N 29°37' W 095°01'0 0.0
2018-Feb-23 18:00N 29°37' W 095°01'0 0.0
2018-Feb-23 17:30N 29°37' W 095°01'0 0.0
2018-Feb-23 17:00N 29°37' W 095°01'0 0.0
2018-Feb-23 16:30N 29°37' W 095°01'0 0.0
2018-Feb-23 16:00N 29°37' W 095°01'0 0.0
2018-Feb-23 15:27N 29°37' W 095°01'0 0.0
2018-Feb-23 15:00N 29°37' W 095°01'0 0.0
2018-Feb-23 14:30N 29°37' W 095°01'0 0.0
2018-Feb-23 14:00N 29°37' W 095°01'0 0.0
2018-Feb-23 13:30N 29°37' W 095°01'0 0.0
2018-Feb-23 13:00N 29°37' W 095°01'0 0.0
2018-Feb-23 11:18N 29°37' W 095°01'0 0.0
2018-Feb-23 10:54N 29°37' W 095°01'0 0.0
2018-Feb-23 10:30N 29°37' W 095°01'0 0.0
2018-Feb-23 09:54N 29°37' W 095°01'0 0.0
2018-Feb-23 09:27N 29°37' W 095°01'0 0.0
2018-Feb-23 09:00N 29°37' W 095°01'0 0.0
2018-Feb-23 08:30N 29°37' W 095°01'0 0.0
2018-Feb-23 07:45N 29°37' W 095°01'0 0.0
2018-Feb-23 07:30N 29°37' W 095°01'0 0.0
2018-Feb-23 06:57N 29°37' W 095°01'0 0.0
2018-Feb-23 06:30N 29°37' W 095°01'0 0.0
2018-Feb-23 06:00N 29°37' W 095°01'0 0.0
2018-Feb-23 05:27N 29°37' W 095°01'0 0.0
2018-Feb-23 04:54N 29°37' W 095°01'0 0.0
2018-Feb-23 04:30N 29°37' W 095°01'0 0.0
2018-Feb-23 04:00N 29°37' W 095°01'0 0.0
2018-Feb-23 03:27N 29°37' W 095°01'0 0.0
2018-Feb-23 02:48N 29°37' W 095°01'0 0.0
2018-Feb-23 02:30N 29°37' W 095°01'0 0.0
2018-Feb-23 00:15N 29°37' W 095°01'0 0.0
2018-Feb-22 23:12N 29°37' W 095°01'0 0.0
2018-Feb-22 23:00N 29°37' W 095°01'0 0.0
2018-Feb-22 22:24N 29°37' W 095°01'0 0.8
2018-Feb-22 21:59N 29°37' W 095°01'0 0.1
2018-Feb-22 21:30N 29°37' W 095°01'0 0.3
2018-Feb-22 20:39N 29°37' W 095°01'0 0.0
2018-Feb-22 20:27N 29°37' W 095°01'0 0.0
2018-Feb-22 19:48N 29°37' W 095°01'0 0.0
2018-Feb-22 19:21N 29°37' W 095°01'0 0.0
2018-Feb-22 18:57N 29°37' W 095°01'0 0.0
2018-Feb-22 18:27N 29°37' W 095°01'0 0.0
2018-Feb-22 18:00N 29°37' W 095°01'0 0.0
2018-Feb-22 17:30N 29°37' W 095°01'0 0.0
2018-Feb-22 17:00N 29°37' W 095°01'0 0.0
2018-Feb-22 16:30N 29°37' W 095°01'0 0.0
2018-Feb-22 15:57N 29°37' W 095°01'0 0.0
2018-Feb-22 15:24N 29°37' W 095°01'0 0.0
2018-Feb-22 14:44N 29°37' W 095°01'0 0.0
2018-Feb-22 14:30N 29°37' W 095°01'0 0.0
2018-Feb-22 13:59N 29°37' W 095°01'0 0.0
2018-Feb-22 13:30N 29°37' W 095°01'0 0.0
2018-Feb-22 13:00N 29°37' W 095°01'0 0.0
2018-Feb-22 12:30N 29°37' W 095°01'0 0.0
2018-Feb-22 12:00N 29°37' W 095°01'0 0.5
2018-Feb-22 11:29N 29°37' W 095°01'3 5.2
2018-Feb-22 10:50N 29°38' W 094°58'3 9.1
2018-Feb-22 10:29N 29°41' W 094°59'5 0.5
2018-Feb-22 01:16N 29°37' W 094°58'2 6.8
2018-Feb-22 01:00N 29°37' W 094°60'1 3.0
2018-Feb-22 00:30N 29°37' W 095°02'0 0.0
2018-Feb-21 23:59N 29°37' W 095°01'0 0.0
2018-Feb-21 23:27N 29°37' W 095°02'0 0.1
2018-Feb-21 23:00N 29°37' W 095°02'0 0.1
2018-Feb-21 22:29N 29°37' W 095°02'0 0.0
2018-Feb-21 21:58N 29°37' W 095°02'0 0.0
2018-Feb-21 14:30N 29°37' W 095°02'0 0.0
2018-Feb-21 13:57N 29°37' W 095°02'0 0.0
2018-Feb-21 13:30N 29°37' W 095°02'0 0.0
2018-Feb-21 12:59N 29°37' W 095°02'1 1.0
2018-Feb-21 12:23N 29°37' W 095°01'1 0.8
2018-Feb-21 11:36N 29°37' W 095°02'0 0.0
2018-Feb-21 07:42N 29°37' W 095°02'0 0.0
2018-Feb-21 07:30N 29°37' W 095°02'0 0.0
2018-Feb-21 06:58N 29°37' W 095°02'0 0.0
2018-Feb-21 06:15N 29°37' W 095°02'0 0.1
2018-Feb-21 04:19N 29°37' W 095°01'0 1.5
2018-Feb-21 04:00N 29°37' W 095°01'1 0.1
2018-Feb-20 20:25N 29°37' W 095°01'1 3.3
2018-Feb-20 20:00N 29°37' W 094°60'2 4.2
2018-Feb-20 19:28N 29°38' W 094°58'3 7.1
2018-Feb-20 19:00N 29°41' W 094°59'10 0.3
2018-Feb-19 09:52N 29°45' W 095°10'8 0.2
2018-Feb-17 14:53N 29°43' W 095°01'2 4.0
2018-Feb-17 14:27N 29°43' W 095°03'1 0.1
2018-Feb-16 14:39N 29°44' W 095°02'4 0.3
2018-Feb-16 04:14N 29°46' W 095°06'  
Track history (hours):
 
Tides and Currents Weather Stations Pressure Air Temp Water Temp Dewpoint Dewpoint Depression Visibility Wind Speed Wind Dir Waves Ship Positions

Aransas

Owner: Kirby Inland Marine LP, Houston, TX. More information available from US FCC via Universal Licensing System and Coast Guard Vessel Documentation Center.

Last reported at 2018-Feb-25 09:56 UTC. Time now 2018-Feb-25 10:06 UTC.
Position N 29°42' W 095°00'.

Length 77 m; draft 2.6 m.

Type: . MMSI: 366995780.

Date/timePositionNaut miles runAvg speedWind from/ knotsBaromVisibWave heightAir tempDewpointWater temp
2018-Feb-25 09:56N 29°42' W 095°00'1 0.0
2018-Feb-23 20:50N 29°42' W 095°01'5 8.8
2018-Feb-23 20:18N 29°39' W 094°58'2 6.0
2018-Feb-23 20:00N 29°37' W 094°58'3 5.2
2018-Feb-23 19:30N 29°37' W 095°01'0 0.0
2018-Feb-23 19:00N 29°37' W 095°01'0 0.0
2018-Feb-23 18:30N 29°37' W 095°01'0 0.0
2018-Feb-23 18:00N 29°37' W 095°01'0 0.0
2018-Feb-23 17:30N 29°37' W 095°01'0 0.0
2018-Feb-23 17:00N 29°37' W 095°01'0 0.0
2018-Feb-23 16:30N 29°37' W 095°01'0 0.0
2018-Feb-23 16:00N 29°37' W 095°01'0 0.0
2018-Feb-23 15:27N 29°37' W 095°01'0 0.0
2018-Feb-23 15:00N 29°37' W 095°01'0 0.0
2018-Feb-23 14:30N 29°37' W 095°01'0 0.0
2018-Feb-23 14:00N 29°37' W 095°01'0 0.0
2018-Feb-23 13:30N 29°37' W 095°01'0 0.0
2018-Feb-23 13:00N 29°37' W 095°01'0 0.0
2018-Feb-23 11:18N 29°37' W 095°01'0 0.0
2018-Feb-23 10:54N 29°37' W 095°01'0 0.0
2018-Feb-23 10:30N 29°37' W 095°01'0 0.0
2018-Feb-23 09:54N 29°37' W 095°01'0 0.0
2018-Feb-23 09:27N 29°37' W 095°01'0 0.0
2018-Feb-23 09:00N 29°37' W 095°01'0 0.0
2018-Feb-23 08:30N 29°37' W 095°01'0 0.0
2018-Feb-23 07:45N 29°37' W 095°01'0 0.0
2018-Feb-23 07:30N 29°37' W 095°01'0 0.0
2018-Feb-23 06:57N 29°37' W 095°01'0 0.0
2018-Feb-23 06:30N 29°37' W 095°01'0 0.0
2018-Feb-23 06:00N 29°37' W 095°01'0 0.0
2018-Feb-23 05:27N 29°37' W 095°01'0 0.0
2018-Feb-23 04:54N 29°37' W 095°01'0 0.0
2018-Feb-23 04:30N 29°37' W 095°01'0 0.0
2018-Feb-23 04:00N 29°37' W 095°01'0 0.0
2018-Feb-23 03:27N 29°37' W 095°01'0 0.0
2018-Feb-23 02:48N 29°37' W 095°01'0 0.0
2018-Feb-23 02:30N 29°37' W 095°01'0 0.0
2018-Feb-23 00:15N 29°37' W 095°01'0 0.0
2018-Feb-22 23:12N 29°37' W 095°01'0 0.0
2018-Feb-22 23:00N 29°37' W 095°01'0 0.0
2018-Feb-22 22:24N 29°37' W 095°01'0 0.8
2018-Feb-22 21:59N 29°37' W 095°01'0 0.1
2018-Feb-22 21:30N 29°37' W 095°01'0 0.3
2018-Feb-22 20:39N 29°37' W 095°01'0 0.0
2018-Feb-22 20:27N 29°37' W 095°01'0 0.0
2018-Feb-22 19:48N 29°37' W 095°01'0 0.0
2018-Feb-22 19:21N 29°37' W 095°01'0 0.0
2018-Feb-22 18:57N 29°37' W 095°01'0 0.0
2018-Feb-22 18:27N 29°37' W 095°01'0 0.0
2018-Feb-22 18:00N 29°37' W 095°01'0 0.0
2018-Feb-22 17:30N 29°37' W 095°01'0 0.0
2018-Feb-22 17:00N 29°37' W 095°01'0 0.0
2018-Feb-22 16:30N 29°37' W 095°01'0 0.0
2018-Feb-22 15:57N 29°37' W 095°01'0 0.0
2018-Feb-22 15:24N 29°37' W 095°01'0 0.0
2018-Feb-22 14:44N 29°37' W 095°01'0 0.0
2018-Feb-22 14:30N 29°37' W 095°01'0 0.0
2018-Feb-22 13:59N 29°37' W 095°01'0 0.0
2018-Feb-22 13:30N 29°37' W 095°01'0 0.0
2018-Feb-22 13:00N 29°37' W 095°01'0 0.0
2018-Feb-22 12:30N 29°37' W 095°01'0 0.0
2018-Feb-22 12:00N 29°37' W 095°01'0 0.5
2018-Feb-22 11:29N 29°37' W 095°01'3 5.2
2018-Feb-22 10:50N 29°38' W 094°58'3 9.1
2018-Feb-22 10:29N 29°41' W 094°59'5 0.5
2018-Feb-22 01:16N 29°37' W 094°58'2 6.8
2018-Feb-22 01:00N 29°37' W 094°60'1 3.0
2018-Feb-22 00:30N 29°37' W 095°02'0 0.0
2018-Feb-21 23:59N 29°37' W 095°01'0 0.0
2018-Feb-21 23:27N 29°37' W 095°02'0 0.1
2018-Feb-21 23:00N 29°37' W 095°02'0 0.1
2018-Feb-21 22:29N 29°37' W 095°02'0 0.0
2018-Feb-21 21:58N 29°37' W 095°02'0 0.0
2018-Feb-21 14:30N 29°37' W 095°02'0 0.0
2018-Feb-21 13:57N 29°37' W 095°02'0 0.0
2018-Feb-21 13:30N 29°37' W 095°02'0 0.0
2018-Feb-21 12:59N 29°37' W 095°02'1 1.0
2018-Feb-21 12:23N 29°37' W 095°01'1 0.8
2018-Feb-21 11:36N 29°37' W 095°02'0 0.0
2018-Feb-21 07:42N 29°37' W 095°02'0 0.0
2018-Feb-21 07:30N 29°37' W 095°02'0 0.0
2018-Feb-21 06:58N 29°37' W 095°02'0 0.0
2018-Feb-21 06:15N 29°37' W 095°02'0 0.1
2018-Feb-21 04:19N 29°37' W 095°01'0 1.5
2018-Feb-21 04:00N 29°37' W 095°01'1 0.1
2018-Feb-20 20:25N 29°37' W 095°01'1 3.3
2018-Feb-20 20:00N 29°37' W 094°60'2 4.2
2018-Feb-20 19:28N 29°38' W 094°58'3 7.1
2018-Feb-20 19:00N 29°41' W 094°59'10 0.3
2018-Feb-19 09:52N 29°45' W 095°10'8 0.2
2018-Feb-17 14:53N 29°43' W 095°01'2 4.0
2018-Feb-17 14:27N 29°43' W 095°03'1 0.1
2018-Feb-16 14:39N 29°44' W 095°02'4 0.3
2018-Feb-16 04:14N 29°46' W 095°06'  

Dump ship's entire track history